sensor_id;sensor_type;location;lat;lon;timestamp;pressure;altitude;pressure_sealevel;temperature;humidity
8075;BME280;4080;42.676;23.372;2023-05-19T00:02:00;95321.78;;;12.47;100.00
8075;BME280;4080;42.676;23.372;2023-05-19T00:04:30;95322.84;;;12.46;100.00
8075;BME280;4080;42.676;23.372;2023-05-19T00:06:58;95322.84;;;12.46;100.00
8075;BME280;4080;42.676;23.372;2023-05-19T00:09:26;95321.78;;;12.47;100.00
8075;BME280;4080;42.676;23.372;2023-05-19T00:11:54;95320.72;;;12.48;100.00
8075;BME280;4080;42.676;23.372;2023-05-19T00:14:22;95319.16;;;12.47;100.00
8075;BME280;4080;42.676;23.372;2023-05-19T00:16:49;95315.44;;;12.48;100.00
8075;BME280;4080;42.676;23.372;2023-05-19T00:19:16;95313.59;;;12.49;100.00
8075;BME280;4080;42.676;23.372;2023-05-19T00:21:43;95303.78;;;12.49;100.00
8075;BME280;4080;42.676;23.372;2023-05-19T00:24:10;95292.44;;;12.43;100.00
8075;BME280;4080;42.676;23.372;2023-05-19T00:26:38;95306.72;;;12.48;100.00
8075;BME280;4080;42.676;23.372;2023-05-19T00:29:05;95305.91;;;12.47;100.00
8075;BME280;4080;42.676;23.372;2023-05-19T00:31:32;95304.84;;;12.48;100.00
8075;BME280;4080;42.676;23.372;2023-05-19T00:33:59;95300.09;;;12.50;100.00
8075;BME280;4080;42.676;23.372;2023-05-19T00:36:25;95307.50;;;12.48;100.00
8075;BME280;4080;42.676;23.372;2023-05-19T00:38:52;95305.38;;;12.50;100.00
8075;BME280;4080;42.676;23.372;2023-05-19T00:41:19;95306.97;;;12.51;100.00
8075;BME280;4080;42.676;23.372;2023-05-19T00:43:49;95294.28;;;12.48;100.00
8075;BME280;4080;42.676;23.372;2023-05-19T00:46:17;95299.06;;;12.46;100.00
8075;BME280;4080;42.676;23.372;2023-05-19T00:48:43;95294.81;;;12.45;100.00
8075;BME280;4080;42.676;23.372;2023-05-19T00:51:11;95289.81;;;12.43;100.00
8075;BME280;4080;42.676;23.372;2023-05-19T00:53:41;95295.88;;;12.44;100.00
8075;BME280;4080;42.676;23.372;2023-05-19T00:56:13;95296.94;;;12.43;100.00
8075;BME280;4080;42.676;23.372;2023-05-19T00:58:40;95295.63;;;12.40;100.00
8075;BME280;4080;42.676;23.372;2023-05-19T01:01:08;95288.28;;;12.32;100.00
8075;BME280;4080;42.676;23.372;2023-05-19T01:03:39;95293.06;;;12.30;100.00
8075;BME280;4080;42.676;23.372;2023-05-19T01:06:07;95289.09;;;12.28;100.00
8075;BME280;4080;42.676;23.372;2023-05-19T01:08:35;95289.88;;;12.23;100.00
8075;BME280;4080;42.676;23.372;2023-05-19T01:11:02;95255.38;;;11.94;100.00
8075;BME280;4080;42.676;23.372;2023-05-19T01:13:29;95293.84;;;12.21;100.00
8075;BME280;4080;42.676;23.372;2023-05-19T01:16:01;95288.91;;;12.04;100.00
8075;BME280;4080;42.676;23.372;2023-05-19T01:18:46;95298.91;;;12.12;100.00
8075;BME280;4080;42.676;23.372;2023-05-19T01:21:55;95296.03;;;12.08;100.00
8075;BME280;4080;42.676;23.372;2023-05-19T01:24:48;95282.31;;;12.01;100.00
8075;BME280;4080;42.676;23.372;2023-05-19T01:27:42;95288.69;;;11.95;100.00
8075;BME280;4080;42.676;23.372;2023-05-19T01:30:23;95297.91;;;11.98;100.00
8075;BME280;4080;42.676;23.372;2023-05-19T01:32:53;95298.72;;;11.98;100.00
8075;BME280;4080;42.676;23.372;2023-05-19T01:35:22;95302.69;;;11.96;100.00
8075;BME280;4080;42.676;23.372;2023-05-19T01:37:51;95252.22;;;11.62;100.00
8075;BME280;4080;42.676;23.372;2023-05-19T01:40:22;95296.88;;;11.89;100.00
8075;BME280;4080;42.676;23.372;2023-05-19T01:42:50;95293.19;;;11.79;100.00
8075;BME280;4080;42.676;23.372;2023-05-19T01:45:19;95259.13;;;11.58;100.00
8075;BME280;4080;42.676;23.372;2023-05-19T01:47:49;95298.22;;;11.81;100.00
8075;BME280;4080;42.676;23.372;2023-05-19T01:50:16;95304.56;;;11.80;100.00
8075;BME280;4080;42.676;23.372;2023-05-19T01:52:43;95299.53;;;11.73;100.00
8075;BME280;4080;42.676;23.372;2023-05-19T01:55:09;95260.19;;;11.51;100.00
8075;BME280;4080;42.676;23.372;2023-05-19T01:57:45;95295.03;;;11.69;100.00
8075;BME280;4080;42.676;23.372;2023-05-19T02:00:21;95285.00;;;11.61;100.00
8075;BME280;4080;42.676;23.372;2023-05-19T02:02:59;95294.78;;;11.60;100.00
8075;BME280;4080;42.676;23.372;2023-05-19T02:05:35;95297.94;;;11.62;100.00
8075;BME280;4080;42.676;23.372;2023-05-19T02:08:11;95303.22;;;11.62;100.00
8075;BME280;4080;42.676;23.372;2023-05-19T02:10:40;95297.41;;;11.60;100.00
8075;BME280;4080;42.676;23.372;2023-05-19T02:13:15;95275.53;;;11.44;100.00
8075;BME280;4080;42.676;23.372;2023-05-19T02:15:47;95309.84;;;11.65;100.00
8075;BME280;4080;42.676;23.372;2023-05-19T02:18:14;95267.06;;;11.32;100.00
8075;BME280;4080;42.676;23.372;2023-05-19T02:20:44;95301.38;;;11.58;100.00
8075;BME280;4080;42.676;23.372;2023-05-19T02:23:11;95297.69;;;11.59;100.00
8075;BME280;4080;42.676;23.372;2023-05-19T02:25:38;95289.22;;;11.57;100.00
8075;BME280;4080;42.676;23.372;2023-05-19T02:28:04;95294.50;;;11.57;100.00
8075;BME280;4080;42.676;23.372;2023-05-19T02:30:31;95299.81;;;11.51;100.00
8075;BME280;4080;42.676;23.372;2023-05-19T02:32:59;95300.59;;;11.52;100.00
8075;BME280;4080;42.676;23.372;2023-05-19T02:35:26;95308.53;;;11.52;100.00
8075;BME280;4080;42.676;23.372;2023-05-19T02:37:53;95304.56;;;11.49;100.00
8075;BME280;4080;42.676;23.372;2023-05-19T02:40:20;95307.75;;;11.46;100.00
8075;BME280;4080;42.676;23.372;2023-05-19T02:42:47;95304.06;;;11.42;100.00
8075;BME280;4080;42.676;23.372;2023-05-19T02:45:14;95305.38;;;11.40;100.00
8075;BME280;4080;42.676;23.372;2023-05-19T02:47:40;95299.31;;;11.39;100.00
8075;BME280;4080;42.676;23.372;2023-05-19T02:50:09;95304.84;;;11.38;100.00
8075;BME280;4080;42.676;23.372;2023-05-19T02:52:35;95313.03;;;11.36;100.00
8075;BME280;4080;42.676;23.372;2023-05-19T02:55:02;95306.69;;;11.37;100.00
8075;BME280;4080;42.676;23.372;2023-05-19T02:57:29;95318.84;;;11.38;100.00
8075;BME280;4080;42.676;23.372;2023-05-19T02:59:57;95314.63;;;11.37;100.00
8075;BME280;4080;42.676;23.372;2023-05-19T03:02:24;95306.44;;;11.34;100.00
8075;BME280;4080;42.676;23.372;2023-05-19T03:04:50;95314.09;;;11.35;100.00
8075;BME280;4080;42.676;23.372;2023-05-19T03:07:18;95317.78;;;11.34;100.00
8075;BME280;4080;42.676;23.372;2023-05-19T03:09:49;95317.53;;;11.36;100.00
8075;BME280;4080;42.676;23.372;2023-05-19T03:12:16;95316.47;;;11.37;100.00
8075;BME280;4080;42.676;23.372;2023-05-19T03:14:43;95277.13;;;11.10;100.00
8075;BME280;4080;42.676;23.372;2023-05-19T03:17:09;95325.44;;;11.41;100.00
8075;BME280;4080;42.676;23.372;2023-05-19T03:19:36;95320.97;;;11.41;100.00
8075;BME280;4080;42.676;23.372;2023-05-19T03:22:03;95326.75;;;11.43;100.00
8075;BME280;4080;42.676;23.372;2023-05-19T03:24:31;95315.94;;;11.50;100.00
8075;BME280;4080;42.676;23.372;2023-05-19T03:26:58;95319.34;;;11.56;100.00
8075;BME280;4080;42.676;23.372;2023-05-19T03:29:26;95325.97;;;11.63;100.00
8075;BME280;4080;42.676;23.372;2023-05-19T03:31:53;95323.56;;;11.72;100.00
8075;BME280;4080;42.676;23.372;2023-05-19T03:34:20;95327.81;;;11.83;100.00
8075;BME280;4080;42.676;23.372;2023-05-19T03:36:46;95324.09;;;11.94;100.00
8075;BME280;4080;42.676;23.372;2023-05-19T03:39:14;95315.38;;;11.89;100.00
8075;BME280;4080;42.676;23.372;2023-05-19T03:41:42;95320.38;;;12.00;100.00
8075;BME280;4080;42.676;23.372;2023-05-19T03:44:09;95334.66;;;11.99;100.00
8075;BME280;4080;42.676;23.372;2023-05-19T03:46:36;95324.88;;;12.00;100.00
8075;BME280;4080;42.676;23.372;2023-05-19T03:49:02;95331.22;;;12.04;100.00
8075;BME280;4080;42.676;23.372;2023-05-19T03:51:29;95339.66;;;12.06;100.00
8075;BME280;4080;42.676;23.372;2023-05-19T03:53:56;95334.91;;;12.08;100.00
8075;BME280;4080;42.676;23.372;2023-05-19T03:56:22;95342.78;;;12.23;100.00
8075;BME280;4080;42.676;23.372;2023-05-19T03:58:53;95338.00;;;12.35;100.00
8075;BME280;4080;42.676;23.372;2023-05-19T04:01:20;95336.59;;;12.48;100.00
8075;BME280;4080;42.676;23.372;2023-05-19T04:03:46;95344.69;;;12.77;100.00
8075;BME280;4080;42.676;23.372;2023-05-19T04:06:13;95325.56;;;12.85;100.00
8075;BME280;4080;42.676;23.372;2023-05-19T04:08:40;95344.19;;;13.24;100.00
8075;BME280;4080;42.676;23.372;2023-05-19T04:11:08;95343.47;;;13.48;100.00
8075;BME280;4080;42.676;23.372;2023-05-19T04:13:35;95344.38;;;13.67;100.00
8075;BME280;4080;42.676;23.372;2023-05-19T04:16:03;95349.00;;;13.85;100.00
8075;BME280;4080;42.676;23.372;2023-05-19T04:18:30;95352.56;;;13.99;100.00
8075;BME280;4080;42.676;23.372;2023-05-19T04:20:57;95363.75;;;14.20;100.00
8075;BME280;4080;42.676;23.372;2023-05-19T04:23:24;95369.41;;;14.43;100.00
8075;BME280;4080;42.676;23.372;2023-05-19T04:25:50;95363.03;;;14.63;100.00
8075;BME280;4080;42.676;23.372;2023-05-19T04:28:18;95338.16;;;14.58;100.00
8075;BME280;4080;42.676;23.372;2023-05-19T04:30:45;95370.56;;;14.98;100.00
8075;BME280;4080;42.676;23.372;2023-05-19T04:33:13;95378.19;;;15.23;100.00
8075;BME280;4080;42.676;23.372;2023-05-19T04:35:40;95379.47;;;15.45;100.00
8075;BME280;4080;42.676;23.372;2023-05-19T04:38:08;95342.25;;;15.45;100.00
8075;BME280;4080;42.676;23.372;2023-05-19T04:40:36;95352.63;;;15.65;100.00
8075;BME280;4080;42.676;23.372;2023-05-19T04:43:04;95383.25;;;15.95;100.00
8075;BME280;4080;42.676;23.372;2023-05-19T04:45:35;95383.84;;;16.06;100.00
8075;BME280;4080;42.676;23.372;2023-05-19T04:48:06;95375.00;;;16.10;100.00
8075;BME280;4080;42.676;23.372;2023-05-19T04:50:34;95384.78;;;16.29;100.00
8075;BME280;4080;42.676;23.372;2023-05-19T04:53:03;95383.06;;;16.19;100.00
8075;BME280;4080;42.676;23.372;2023-05-19T04:55:29;95383.31;;;16.23;100.00
8075;BME280;4080;42.676;23.372;2023-05-19T04:57:57;95388.16;;;16.34;100.00
8075;BME280;4080;42.676;23.372;2023-05-19T05:00:23;95391.28;;;16.50;100.00
8075;BME280;4080;42.676;23.372;2023-05-19T05:02:50;95394.50;;;16.66;100.00
8075;BME280;4080;42.676;23.372;2023-05-19T05:05:17;95393.81;;;16.74;100.00
8075;BME280;4080;42.676;23.372;2023-05-19T05:07:45;95401.09;;;16.82;100.00
8075;BME280;4080;42.676;23.372;2023-05-19T05:10:12;95397.94;;;16.94;100.00
8075;BME280;4080;42.676;23.372;2023-05-19T05:12:39;95401.06;;;17.10;100.00
8075;BME280;4080;42.676;23.372;2023-05-19T05:15:07;95397.69;;;17.31;100.00
8075;BME280;4080;42.676;23.372;2023-05-19T05:17:34;95390.94;;;17.48;100.00
8075;BME280;4080;42.676;23.372;2023-05-19T05:20:02;95396.19;;;17.61;100.00
8075;BME280;4080;42.676;23.372;2023-05-19T05:22:31;95399.25;;;17.68;100.00
8075;BME280;4080;42.676;23.372;2023-05-19T05:25:00;95400.50;;;17.85;100.00
8075;BME280;4080;42.676;23.372;2023-05-19T05:27:45;95384.22;;;17.95;100.00
8075;BME280;4080;42.676;23.372;2023-05-19T05:30:12;95385.00;;;17.95;100.00
8075;BME280;4080;42.676;23.372;2023-05-19T05:32:39;95392.47;;;18.07;100.00
8075;BME280;4080;42.676;23.372;2023-05-19T05:35:06;95400.69;;;18.19;100.00
8075;BME280;4080;42.676;23.372;2023-05-19T05:37:33;95397.28;;;18.27;100.00
8075;BME280;4080;42.676;23.372;2023-05-19T05:40:02;95407.09;;;18.41;100.00
8075;BME280;4080;42.676;23.372;2023-05-19T05:42:29;95409.66;;;18.54;100.00
8075;BME280;4080;42.676;23.372;2023-05-19T05:44:55;95405.72;;;18.74;100.00
8075;BME280;4080;42.676;23.372;2023-05-19T05:47:22;95408.25;;;18.88;100.00
8075;BME280;4080;42.676;23.372;2023-05-19T05:49:50;95402.13;;;18.96;100.00
8075;BME280;4080;42.676;23.372;2023-05-19T05:52:17;95393.47;;;18.90;100.00
8075;BME280;4080;42.676;23.372;2023-05-19T05:54:47;95415.53;;;19.05;100.00
8075;BME280;4080;42.676;23.372;2023-05-19T05:57:15;95416.03;;;19.24;100.00
8075;BME280;4080;42.676;23.372;2023-05-19T05:59:42;95417.84;;;19.54;100.00
8075;BME280;4080;42.676;23.372;2023-05-19T06:02:09;95428.69;;;19.84;100.00
8075;BME280;4080;42.676;23.372;2023-05-19T06:04:36;95423.19;;;19.98;100.00
8075;BME280;4080;42.676;23.372;2023-05-19T06:07:03;95439.25;;;20.24;100.00
8075;BME280;4080;42.676;23.372;2023-05-19T06:09:30;95433.34;;;20.39;100.00
8075;BME280;4080;42.676;23.372;2023-05-19T06:11:57;95431.78;;;20.46;100.00
8075;BME280;4080;42.676;23.372;2023-05-19T06:14:26;95433.03;;;20.49;100.00
8075;BME280;4080;42.676;23.372;2023-05-19T06:16:53;95432.06;;;20.62;100.00
8075;BME280;4080;42.676;23.372;2023-05-19T06:19:20;95442.44;;;20.72;100.00
8075;BME280;4080;42.676;23.372;2023-05-19T06:21:46;95450.13;;;20.83;100.00
8075;BME280;4080;42.676;23.372;2023-05-19T06:24:13;95447.91;;;20.85;100.00
8075;BME280;4080;42.676;23.372;2023-05-19T06:26:40;95443.63;;;20.92;100.00
8075;BME280;4080;42.676;23.372;2023-05-19T06:29:06;95444.78;;;21.12;100.00
8075;BME280;4080;42.676;23.372;2023-05-19T06:31:34;95443.47;;;21.27;100.00
8075;BME280;4080;42.676;23.372;2023-05-19T06:34:01;95448.78;;;21.35;100.00
8075;BME280;4080;42.676;23.372;2023-05-19T06:36:28;95453.47;;;21.47;100.00
8075;BME280;4080;42.676;23.372;2023-05-19T06:38:54;95457.47;;;21.62;100.00
8075;BME280;4080;42.676;23.372;2023-05-19T06:41:21;95452.41;;;21.60;100.00
8075;BME280;4080;42.676;23.372;2023-05-19T06:43:48;95450.31;;;21.66;100.00
8075;BME280;4080;42.676;23.372;2023-05-19T06:46:15;95451.78;;;21.84;100.00
8075;BME280;4080;42.676;23.372;2023-05-19T06:48:43;95450.66;;;21.85;100.00
8075;BME280;4080;42.676;23.372;2023-05-19T06:51:10;95456.28;;;21.92;100.00
8075;BME280;4080;42.676;23.372;2023-05-19T06:53:36;95447.03;;;22.02;100.00
8075;BME280;4080;42.676;23.372;2023-05-19T06:56:04;95456.22;;;22.22;100.00
8075;BME280;4080;42.676;23.372;2023-05-19T06:58:30;95458.47;;;22.32;100.00
8075;BME280;4080;42.676;23.372;2023-05-19T07:00:57;95458.66;;;22.48;100.00
8075;BME280;4080;42.676;23.372;2023-05-19T07:03:24;95463.72;;;22.61;99.09
8075;BME280;4080;42.676;23.372;2023-05-19T07:05:52;95459.91;;;22.62;96.90
8075;BME280;4080;42.676;23.372;2023-05-19T07:08:19;95456.97;;;22.55;97.41
8075;BME280;4080;42.676;23.372;2023-05-19T07:10:46;95459.78;;;22.59;100.00
8075;BME280;4080;42.676;23.372;2023-05-19T07:13:12;95459.38;;;22.69;100.00
8075;BME280;4080;42.676;23.372;2023-05-19T07:15:39;95466.91;;;22.76;98.53
8075;BME280;4080;42.676;23.372;2023-05-19T07:18:06;95475.06;;;22.79;98.71
8075;BME280;4080;42.676;23.372;2023-05-19T07:20:32;95465.81;;;22.89;97.35
8075;BME280;4080;42.676;23.372;2023-05-19T07:23:00;95425.19;;;22.57;95.55
8075;BME280;4080;42.676;23.372;2023-05-19T07:25:27;95460.22;;;22.94;97.86
8075;BME280;4080;42.676;23.372;2023-05-19T07:27:54;95461.59;;;23.00;99.23
8075;BME280;4080;42.676;23.372;2023-05-19T07:30:21;95465.50;;;23.03;94.91
8075;BME280;4080;42.676;23.372;2023-05-19T07:32:48;95468.41;;;23.10;97.29
8075;BME280;4080;42.676;23.372;2023-05-19T07:35:15;95463.94;;;23.14;97.02
8075;BME280;4080;42.676;23.372;2023-05-19T07:37:41;95467.41;;;23.02;95.65
8075;BME280;4080;42.676;23.372;2023-05-19T07:40:10;95463.81;;;23.10;95.59
8075;BME280;4080;42.676;23.372;2023-05-19T07:42:37;95465.41;;;22.99;93.70
8075;BME280;4080;42.676;23.372;2023-05-19T07:45:04;95458.31;;;22.95;95.33
8075;BME280;4080;42.676;23.372;2023-05-19T07:47:31;95466.84;;;22.97;95.80
8075;BME280;4080;42.676;23.372;2023-05-19T07:49:58;95462.59;;;23.08;95.84
8075;BME280;4080;42.676;23.372;2023-05-19T07:52:24;95467.19;;;23.19;95.02
8075;BME280;4080;42.676;23.372;2023-05-19T07:54:51;95469.09;;;23.31;97.75
8075;BME280;4080;42.676;23.372;2023-05-19T07:57:19;95464.47;;;23.56;96.68
8075;BME280;4080;42.676;23.372;2023-05-19T07:59:46;95468.59;;;23.78;93.52
8075;BME280;4080;42.676;23.372;2023-05-19T08:02:13;95460.84;;;23.89;93.73
8075;BME280;4080;42.676;23.372;2023-05-19T08:04:39;95466.56;;;23.87;89.41
8075;BME280;4080;42.676;23.372;2023-05-19T08:07:06;95455.91;;;23.78;91.20
8075;BME280;4080;42.676;23.372;2023-05-19T08:09:33;95458.38;;;23.83;91.89
8075;BME280;4080;42.676;23.372;2023-05-19T08:12:00;95463.66;;;23.80;93.47
8075;BME280;4080;42.676;23.372;2023-05-19T08:14:30;95464.78;;;23.91;94.06
8075;BME280;4080;42.676;23.372;2023-05-19T08:16:58;95459.59;;;23.98;92.20
8075;BME280;4080;42.676;23.372;2023-05-19T08:19:24;95463.31;;;23.94;91.92
8075;BME280;4080;42.676;23.372;2023-05-19T08:21:51;95469.44;;;24.06;93.21
8075;BME280;4080;42.676;23.372;2023-05-19T08:24:18;95466.00;;;23.94;91.80
8075;BME280;4080;42.676;23.372;2023-05-19T08:26:45;95468.69;;;23.81;94.07
8075;BME280;4080;42.676;23.372;2023-05-19T08:29:11;95453.66;;;23.80;94.71
8075;BME280;4080;42.676;23.372;2023-05-19T08:31:39;95457.66;;;23.99;94.69
8075;BME280;4080;42.676;23.372;2023-05-19T08:34:06;95464.78;;;24.19;93.45
8075;BME280;4080;42.676;23.372;2023-05-19T08:36:33;95463.19;;;24.30;93.00
8075;BME280;4080;42.676;23.372;2023-05-19T08:39:00;95458.59;;;24.46;92.94
8075;BME280;4080;42.676;23.372;2023-05-19T08:41:26;95461.94;;;24.56;91.50
8075;BME280;4080;42.676;23.372;2023-05-19T08:43:53;95460.78;;;24.41;92.00
8075;BME280;4080;42.676;23.372;2023-05-19T08:46:20;95463.16;;;24.02;93.13
8075;BME280;4080;42.676;23.372;2023-05-19T08:48:53;95465.38;;;23.72;94.01
8075;BME280;4080;42.676;23.372;2023-05-19T08:51:26;95458.69;;;23.94;96.99
8075;BME280;4080;42.676;23.372;2023-05-19T08:54:01;95363.50;;;23.50;94.75
8075;BME280;4080;42.676;23.372;2023-05-19T08:56:30;95427.06;;;23.91;93.43
8075;BME280;4080;42.676;23.372;2023-05-19T08:58:57;95461.16;;;24.27;95.03
8075;BME280;4080;42.676;23.372;2023-05-19T09:01:24;95449.13;;;24.37;92.18
8075;BME280;4080;42.676;23.372;2023-05-19T09:03:54;95446.56;;;24.56;94.00
8075;BME280;4080;42.676;23.372;2023-05-19T09:06:21;95429.47;;;24.36;92.82
8075;BME280;4080;42.676;23.372;2023-05-19T09:08:49;95447.25;;;24.53;95.89
8075;BME280;4080;42.676;23.372;2023-05-19T09:11:16;95446.81;;;24.67;92.27
8075;BME280;4080;42.676;23.372;2023-05-19T09:13:42;95438.63;;;24.79;91.67
8075;BME280;4080;42.676;23.372;2023-05-19T09:16:09;95439.28;;;24.88;93.04
8075;BME280;4080;42.676;23.372;2023-05-19T09:18:38;95431.00;;;24.81;94.08
8075;BME280;4080;42.676;23.372;2023-05-19T09:21:07;95439.06;;;24.65;89.29
8075;BME280;4080;42.676;23.372;2023-05-19T09:23:35;95438.03;;;24.54;93.79
8075;BME280;4080;42.676;23.372;2023-05-19T09:26:03;95438.03;;;24.70;93.22
8075;BME280;4080;42.676;23.372;2023-05-19T09:28:34;95428.13;;;24.90;92.10
8075;BME280;4080;42.676;23.372;2023-05-19T09:31:01;95431.53;;;25.02;93.33
8075;BME280;4080;42.676;23.372;2023-05-19T09:33:29;95427.22;;;25.33;90.50
8075;BME280;4080;42.676;23.372;2023-05-19T09:35:57;95428.28;;;25.44;89.78
8075;BME280;4080;42.676;23.372;2023-05-19T09:38:26;95430.69;;;25.49;89.02
8075;BME280;4080;42.676;23.372;2023-05-19T09:40:55;95426.47;;;25.67;90.90
8075;BME280;4080;42.676;23.372;2023-05-19T09:43:22;95430.06;;;25.72;90.47
8075;BME280;4080;42.676;23.372;2023-05-19T09:45:54;95425.50;;;25.76;90.96
8075;BME280;4080;42.676;23.372;2023-05-19T09:48:20;95431.13;;;25.86;88.99
8075;BME280;4080;42.676;23.372;2023-05-19T09:50:47;95428.47;;;25.71;84.90
8075;BME280;4080;42.676;23.372;2023-05-19T09:53:16;95434.53;;;25.48;85.63
8075;BME280;4080;42.676;23.372;2023-05-19T09:55:44;95417.22;;;25.33;86.45
8075;BME280;4080;42.676;23.372;2023-05-19T09:58:15;95430.69;;;25.49;87.76
8075;BME280;4080;42.676;23.372;2023-05-19T10:00:42;95419.97;;;25.37;88.49
8075;BME280;4080;42.676;23.372;2023-05-19T10:03:09;95411.19;;;25.40;85.94
8075;BME280;4080;42.676;23.372;2023-05-19T10:05:36;95416.56;;;25.56;87.25
8075;BME280;4080;42.676;23.372;2023-05-19T10:08:04;95417.66;;;25.71;84.22
8075;BME280;4080;42.676;23.372;2023-05-19T10:10:34;95413.34;;;25.50;83.19
8075;BME280;4080;42.676;23.372;2023-05-19T10:13:04;95400.91;;;25.11;86.31
8075;BME280;4080;42.676;23.372;2023-05-19T10:15:31;95409.84;;;25.15;91.01
8075;BME280;4080;42.676;23.372;2023-05-19T10:17:58;95401.63;;;25.27;84.86
8075;BME280;4080;42.676;23.372;2023-05-19T10:20:26;95391.91;;;25.06;84.13
8075;BME280;4080;42.676;23.372;2023-05-19T10:22:52;95412.38;;;25.07;82.14
8075;BME280;4080;42.676;23.372;2023-05-19T10:25:19;95409.06;;;24.98;82.24
8075;BME280;4080;42.676;23.372;2023-05-19T10:27:53;95401.06;;;24.86;84.08
8075;BME280;4080;42.676;23.372;2023-05-19T10:30:25;95384.78;;;24.98;87.68
8075;BME280;4080;42.676;23.372;2023-05-19T10:32:54;95395.47;;;25.26;85.15
8075;BME280;4080;42.676;23.372;2023-05-19T10:38:23;95397.47;;;25.84;83.11
8075;BME280;4080;42.676;23.372;2023-05-19T10:41:00;95392.75;;;25.61;77.45
8075;BME280;4080;42.676;23.372;2023-05-19T10:43:37;95383.38;;;25.39;76.63
8075;BME280;4080;42.676;23.372;2023-05-19T10:46:08;95393.69;;;25.34;77.90
8075;BME280;4080;42.676;23.372;2023-05-19T10:48:35;95388.47;;;25.41;80.06
8075;BME280;4080;42.676;23.372;2023-05-19T10:51:03;95382.56;;;25.55;81.87
8075;BME280;4080;42.676;23.372;2023-05-19T10:53:31;95386.44;;;25.38;80.94
8075;BME280;4080;42.676;23.372;2023-05-19T10:56:00;95381.03;;;25.38;77.55
8075;BME280;4080;42.676;23.372;2023-05-19T10:58:48;95368.81;;;25.25;78.84
8075;BME280;4080;42.676;23.372;2023-05-19T11:01:18;95370.16;;;25.15;79.63
8075;BME280;4080;42.676;23.372;2023-05-19T11:03:47;95373.34;;;25.21;80.63
8075;BME280;4080;42.676;23.372;2023-05-19T11:06:24;95371.72;;;25.16;81.14
8075;BME280;4080;42.676;23.372;2023-05-19T11:08:52;95369.53;;;25.22;80.26
8075;BME280;4080;42.676;23.372;2023-05-19T11:11:19;95367.75;;;25.29;80.58
8075;BME280;4080;42.676;23.372;2023-05-19T11:13:47;95367.81;;;25.33;79.54
8075;BME280;4080;42.676;23.372;2023-05-19T11:16:19;95364.84;;;25.03;79.53
8075;BME280;4080;42.676;23.372;2023-05-19T11:18:52;95358.31;;;24.72;78.07
8075;BME280;4080;42.676;23.372;2023-05-19T11:21:19;95365.28;;;24.42;80.36
8075;BME280;4080;42.676;23.372;2023-05-19T11:23:46;95362.69;;;24.17;80.24
8075;BME280;4080;42.676;23.372;2023-05-19T11:26:13;95358.75;;;23.99;80.03
8075;BME280;4080;42.676;23.372;2023-05-19T11:28:40;95361.16;;;23.89;81.95
8075;BME280;4080;42.676;23.372;2023-05-19T11:31:07;95355.38;;;23.74;83.72
8075;BME280;4080;42.676;23.372;2023-05-19T11:33:38;95368.88;;;23.50;84.13
8075;BME280;4080;42.676;23.372;2023-05-19T11:36:05;95333.78;;;23.06;89.62
8075;BME280;4080;42.676;23.372;2023-05-19T11:38:33;95368.75;;;23.06;97.00
8075;BME280;4080;42.676;23.372;2023-05-19T11:41:00;95381.84;;;22.71;97.91
8075;BME280;4080;42.676;23.372;2023-05-19T11:43:27;95394.66;;;22.29;100.00
8075;BME280;4080;42.676;23.372;2023-05-19T11:45:53;95377.19;;;21.48;100.00
8075;BME280;4080;42.676;23.372;2023-05-19T11:48:21;95376.00;;;20.78;100.00
8075;BME280;4080;42.676;23.372;2023-05-19T11:50:49;95359.97;;;20.23;100.00
8075;BME280;4080;42.676;23.372;2023-05-19T11:53:17;95378.47;;;19.98;100.00
8075;BME280;4080;42.676;23.372;2023-05-19T11:55:45;95371.91;;;19.61;100.00
8075;BME280;4080;42.676;23.372;2023-05-19T11:58:12;95382.63;;;18.96;100.00
8075;BME280;4080;42.676;23.372;2023-05-19T12:00:42;95389.69;;;18.52;100.00
8075;BME280;4080;42.676;23.372;2023-05-19T12:03:10;95400.97;;;18.40;100.00
8075;BME280;4080;42.676;23.372;2023-05-19T12:05:40;95416.25;;;17.95;100.00
8075;BME280;4080;42.676;23.372;2023-05-19T12:08:08;95425.06;;;17.59;100.00
8075;BME280;4080;42.676;23.372;2023-05-19T12:10:35;95414.56;;;17.27;100.00
8075;BME280;4080;42.676;23.372;2023-05-19T12:13:02;95420.53;;;16.96;100.00
8075;BME280;4080;42.676;23.372;2023-05-19T12:15:33;95416.59;;;16.66;100.00
8075;BME280;4080;42.676;23.372;2023-05-19T12:18:00;95403.91;;;16.44;100.00
8075;BME280;4080;42.676;23.372;2023-05-19T12:20:28;95415.44;;;16.26;100.00
8075;BME280;4080;42.676;23.372;2023-05-19T12:22:57;95414.84;;;16.29;100.00
8075;BME280;4080;42.676;23.372;2023-05-19T12:25:25;95405.88;;;16.25;100.00
8075;BME280;4080;42.676;23.372;2023-05-19T12:27:56;95406.66;;;16.26;100.00
8075;BME280;4080;42.676;23.372;2023-05-19T12:30:25;95404.50;;;16.41;100.00
8075;BME280;4080;42.676;23.372;2023-05-19T12:32:53;95390.81;;;16.62;100.00
8075;BME280;4080;42.676;23.372;2023-05-19T12:35:25;95402.09;;;16.72;100.00
8075;BME280;4080;42.676;23.372;2023-05-19T12:37:52;95402.88;;;16.87;100.00
8075;BME280;4080;42.676;23.372;2023-05-19T12:40:19;95404.44;;;17.01;100.00
8075;BME280;4080;42.676;23.372;2023-05-19T12:42:47;95401.84;;;17.10;100.00
8075;BME280;4080;42.676;23.372;2023-05-19T12:45:19;95393.19;;;17.04;100.00
8075;BME280;4080;42.676;23.372;2023-05-19T12:47:47;95391.59;;;17.03;100.00
8075;BME280;4080;42.676;23.372;2023-05-19T12:50:15;95386.44;;;17.21;100.00
8075;BME280;4080;42.676;23.372;2023-05-19T12:52:45;95381.50;;;17.28;100.00
8075;BME280;4080;42.676;23.372;2023-05-19T12:55:12;95374.84;;;17.39;100.00
8075;BME280;4080;42.676;23.372;2023-05-19T12:57:41;95338.59;;;17.38;100.00
8075;BME280;4080;42.676;23.372;2023-05-19T13:00:14;95336.66;;;17.30;100.00
8075;BME280;4080;42.676;23.372;2023-05-19T13:02:55;95375.25;;;17.68;100.00
8075;BME280;4080;42.676;23.372;2023-05-19T13:05:22;95328.59;;;17.44;100.00
8075;BME280;4080;42.676;23.372;2023-05-19T13:07:56;95351.72;;;17.71;100.00
8075;BME280;4080;42.676;23.372;2023-05-19T13:10:24;95353.25;;;17.85;100.00
8075;BME280;4080;42.676;23.372;2023-05-19T13:12:52;95342.56;;;17.85;100.00
8075;BME280;4080;42.676;23.372;2023-05-19T13:15:22;95355.69;;;18.04;100.00